Portada
METAR-TAF:

METAR-TAF

Aeroports :

Uberlândia, Minas Gerais, Brasil

latitud: 18-53S, longitud: 048-14W, altitud: 943 m

Observació

L'informe es va fer fa 59 minuts, a les 01:00 UTC
Vent 4 kt del Nord
Temperatura 22°C
Humitat 35%
Pressió 1019 hPa
Visibilitat 10 km o més
sense núvols per sota de 1500 mi sense presència de cumulonimbus.

METAR: SBUL 160100Z 01004KT CAVOK 22/06 Q1019

Hora: 22:59 (01:59 UTC)

Pronòstic

L'informe es va fer fa 3 hores i 53 minuts, a les 22:06 UTC
Pronòstic vàlid del 16 a les 00 UTC al 16 a les 12 UTC
Vent 5 kt del Nord/Nord-Oest
Visibilitat 10 km o més
sense núvols per sota de 1500 mi sense presència de cumulonimbus.
Evolucionant progressivament
l' 16 a les 01 UTC al 16 a les 03 UTC
Vent 5 kt del Est/Sud-Est
Evolucionant progressivament
l' 16 a les 04 UTC al 16 a les 06 UTC
Vent 8 kt del Est/Nord-Est

TAF: SBUL 152206Z 1600/1612 34005KT CAVOK TX22/1600Z TN18/1609Z BECMG 1601/1603 11005KT BECMG 1604/1606 06008KT RMK PGF

Observacions i pronòstics meteorològics de més de 4000 aeroports (METAR i TAF).

Les estacions disponibles són els punts grocs i vermells al mapa.

Posi el ratolí al punt desitjat per veure el nom de l'estació.

Feu clic per veure les observacions i els pronòstics meteorològics.

Per canviar el mapa: feu clic els botons verds amb una creu de color negre per apropar; al botó verd amb un guió per allunyar la imatge; o en les fletxes verdes per a mapes adjacents.


METAR-TAF: